San Diego, CA

09:25 PST le 26 février 2017 (GMT -0800)
Union Square Condominiums | | Change Station

Alt. 79 ft 32.72 °N, 117.15 °W | Updated 12 minutes ago

Overcast
Couvert
56.1 ° F
Paraît 56.1 ° F
N
1.7
Vent Variable Vent de SO

Aujourd'hui
Haut(e) -- | Bas -- ° F
--% Risque de précip.
Hier
Haut(e) -- | Bas -- ° F
Precip. -- pouce
Pression 30.06 pouce
Visibilité 10.0 Miles terrestres
Nuages Nuageux 1600 ft
Nuageux 4000 ft
Couvert 5500 ft
Point de rosée 51 ° F
Humidité 84%
Précipitations 0.00 pouce
Profondeur de la couche neigeuse Non disponible.
6:19 AM 5:43 PM
Nouvelle lune, 0% visible
METAR KSAN 261651Z 13003KT 10SM BKN016 BKN040 OVC055 12/08 A3006 RMK AO2 RAE21 SLP177 P0000 T01170083
Pression 30.06 pouce
Visibilité 10.0 Miles terrestres
Nuages Nuageux 1600 ft
Nuageux 4000 ft
Couvert 5500 ft
Point de rosée 51 ° F
Humidité 84%
Précipitations 0.00 pouce
Profondeur de la couche neigeuse Non disponible.
6:19 AM 5:43 PM
Nouvelle lune, 0% visible
METAR KSAN 261651Z 13003KT 10SM BKN016 BKN040 OVC055 12/08 A3006 RMK AO2 RAE21 SLP177 P0000 T01170083

Get Your Daily Forecast Email!

Thanks for signing up!

Be on the lookout for a verification email in your inbox.

You'll start receiving the daily forecast at 8 AM.

×

10-Day Weather Forecast

Almanac

Astronomie

Feb. 26, 2017 Lever Coucher
Temps réel
Crépuscule civil
Crépuscule nautique
Crépuscule astronomique
Lune
Durée de lumière visible
Longueur du jour
Tomorrow will be .
, % of the Moon is Illuminated

Extrêmes aujourd'hui

State Highs State Lows

Community

WunderPhotos

Upload Photos

1,962,540 Photos téléchargées !

WunderBlog® & News

Nearby

Qualité de l'air

  Qualité de l'air Indice de la qualité de l'air Polluant
Not available.

Épaisseur de neige

Station Depth Altitude

Activité sismique

Ville Distance Mag. Time & Date
Minimum magnitude displayed is 2.5.

Températures des eaux côtières

Lieu Température

Stations

Stations météo à proximité

Emplacement de la station Température Refroidissement éolien Point de rosée Humidité Vent Precip. Alt. Mise à jour Type
                   

Watches & Warnings

There are currently no watches in effect.